sensor_id;sensor_type;location;lat;lon;timestamp;P1;durP1;ratioP1;P2;durP2;ratioP2
11313;SDS011;5712;48.858;9.206;2023-06-14T00:02:14;4.83;;;4.33;;
11313;SDS011;5712;48.858;9.206;2023-06-14T00:04:40;5.67;;;4.37;;
11313;SDS011;5712;48.858;9.206;2023-06-14T00:07:08;4.67;;;4.20;;
11313;SDS011;5712;48.858;9.206;2023-06-14T00:09:35;4.43;;;4.03;;
11313;SDS011;5712;48.858;9.206;2023-06-14T00:12:01;4.73;;;4.23;;
11313;SDS011;5712;48.858;9.206;2023-06-14T00:14:29;5.63;;;4.23;;
11313;SDS011;5712;48.858;9.206;2023-06-14T00:16:56;5.20;;;4.70;;
11313;SDS011;5712;48.858;9.206;2023-06-14T00:19:23;4.47;;;4.07;;
11313;SDS011;5712;48.858;9.206;2023-06-14T00:21:50;4.43;;;3.93;;
11313;SDS011;5712;48.858;9.206;2023-06-14T00:24:16;5.30;;;4.33;;
11313;SDS011;5712;48.858;9.206;2023-06-14T00:26:43;5.13;;;4.50;;
11313;SDS011;5712;48.858;9.206;2023-06-14T00:29:10;4.63;;;4.23;;
11313;SDS011;5712;48.858;9.206;2023-06-14T00:31:37;4.40;;;4.00;;
11313;SDS011;5712;48.858;9.206;2023-06-14T00:34:04;4.63;;;4.23;;
11313;SDS011;5712;48.858;9.206;2023-06-14T00:36:30;4.00;;;3.60;;
11313;SDS011;5712;48.858;9.206;2023-06-14T00:38:57;5.70;;;4.20;;
11313;SDS011;5712;48.858;9.206;2023-06-14T00:41:23;5.73;;;4.30;;
11313;SDS011;5712;48.858;9.206;2023-06-14T00:43:50;4.93;;;4.30;;
11313;SDS011;5712;48.858;9.206;2023-06-14T00:46:17;5.67;;;4.23;;
11313;SDS011;5712;48.858;9.206;2023-06-14T00:48:45;5.97;;;4.13;;
11313;SDS011;5712;48.858;9.206;2023-06-14T00:51:13;4.87;;;3.90;;
11313;SDS011;5712;48.858;9.206;2023-06-14T00:53:40;4.37;;;3.97;;
11313;SDS011;5712;48.858;9.206;2023-06-14T00:56:11;5.03;;;4.53;;
11313;SDS011;5712;48.858;9.206;2023-06-14T00:58:38;4.93;;;4.17;;
11313;SDS011;5712;48.858;9.206;2023-06-14T01:01:05;4.73;;;4.23;;
11313;SDS011;5712;48.858;9.206;2023-06-14T01:03:31;4.50;;;4.10;;
11313;SDS011;5712;48.858;9.206;2023-06-14T01:06:02;4.60;;;3.97;;
11313;SDS011;5712;48.858;9.206;2023-06-14T01:08:38;5.10;;;4.60;;
11313;SDS011;5712;48.858;9.206;2023-06-14T01:11:12;5.13;;;4.03;;
11313;SDS011;5712;48.858;9.206;2023-06-14T01:13:42;5.17;;;4.43;;
11313;SDS011;5712;48.858;9.206;2023-06-14T01:16:11;5.20;;;4.03;;
11313;SDS011;5712;48.858;9.206;2023-06-14T01:18:38;4.43;;;4.03;;
11313;SDS011;5712;48.858;9.206;2023-06-14T01:21:15;5.17;;;4.00;;
11313;SDS011;5712;48.858;9.206;2023-06-14T01:23:48;4.70;;;4.30;;
11313;SDS011;5712;48.858;9.206;2023-06-14T01:26:17;4.53;;;4.10;;
11313;SDS011;5712;48.858;9.206;2023-06-14T01:28:44;5.27;;;4.13;;
11313;SDS011;5712;48.858;9.206;2023-06-14T01:31:13;4.50;;;4.10;;
11313;SDS011;5712;48.858;9.206;2023-06-14T01:33:42;4.87;;;4.20;;
11313;SDS011;5712;48.858;9.206;2023-06-14T01:36:10;4.67;;;4.10;;
11313;SDS011;5712;48.858;9.206;2023-06-14T01:38:37;5.13;;;4.00;;
11313;SDS011;5712;48.858;9.206;2023-06-14T01:41:05;5.13;;;4.50;;
11313;SDS011;5712;48.858;9.206;2023-06-14T01:43:32;4.53;;;4.10;;
11313;SDS011;5712;48.858;9.206;2023-06-14T01:46:00;4.53;;;3.80;;
11313;SDS011;5712;48.858;9.206;2023-06-14T01:48:29;4.50;;;4.10;;
11313;SDS011;5712;48.858;9.206;2023-06-14T01:50:55;4.67;;;4.27;;
11313;SDS011;5712;48.858;9.206;2023-06-14T01:53:22;4.57;;;4.17;;
11313;SDS011;5712;48.858;9.206;2023-06-14T01:55:48;4.83;;;4.27;;
11313;SDS011;5712;48.858;9.206;2023-06-14T01:58:16;4.80;;;4.30;;
11313;SDS011;5712;48.858;9.206;2023-06-14T02:00:42;5.67;;;4.30;;
11313;SDS011;5712;48.858;9.206;2023-06-14T02:03:10;5.63;;;4.10;;
11313;SDS011;5712;48.858;9.206;2023-06-14T02:05:38;4.97;;;4.47;;
11313;SDS011;5712;48.858;9.206;2023-06-14T02:08:04;4.80;;;4.30;;
11313;SDS011;5712;48.858;9.206;2023-06-14T02:10:31;6.77;;;4.17;;
11313;SDS011;5712;48.858;9.206;2023-06-14T02:12:57;5.93;;;4.30;;
11313;SDS011;5712;48.858;9.206;2023-06-14T02:15:25;4.67;;;3.87;;
11313;SDS011;5712;48.858;9.206;2023-06-14T02:17:58;5.17;;;4.60;;
11313;SDS011;5712;48.858;9.206;2023-06-14T02:20:25;6.17;;;4.20;;
11313;SDS011;5712;48.858;9.206;2023-06-14T02:22:52;5.63;;;4.20;;
11313;SDS011;5712;48.858;9.206;2023-06-14T02:25:18;4.20;;;3.80;;
11313;SDS011;5712;48.858;9.206;2023-06-14T02:27:45;5.07;;;4.50;;
11313;SDS011;5712;48.858;9.206;2023-06-14T02:30:12;5.23;;;4.37;;
11313;SDS011;5712;48.858;9.206;2023-06-14T02:32:41;5.47;;;4.50;;
11313;SDS011;5712;48.858;9.206;2023-06-14T02:35:08;5.13;;;4.63;;
11313;SDS011;5712;48.858;9.206;2023-06-14T02:37:35;6.03;;;4.40;;
11313;SDS011;5712;48.858;9.206;2023-06-14T02:40:02;4.80;;;4.30;;
11313;SDS011;5712;48.858;9.206;2023-06-14T02:42:29;5.80;;;4.43;;
11313;SDS011;5712;48.858;9.206;2023-06-14T02:44:56;5.13;;;4.60;;
11313;SDS011;5712;48.858;9.206;2023-06-14T02:47:22;5.07;;;4.57;;
11313;SDS011;5712;48.858;9.206;2023-06-14T02:49:51;5.87;;;4.67;;
11313;SDS011;5712;48.858;9.206;2023-06-14T02:52:17;5.03;;;4.20;;
11313;SDS011;5712;48.858;9.206;2023-06-14T02:54:45;6.13;;;4.67;;
11313;SDS011;5712;48.858;9.206;2023-06-14T02:57:12;5.60;;;4.60;;
11313;SDS011;5712;48.858;9.206;2023-06-14T02:59:38;5.87;;;4.27;;
11313;SDS011;5712;48.858;9.206;2023-06-14T03:02:05;5.30;;;4.60;;
11313;SDS011;5712;48.858;9.206;2023-06-14T03:04:32;5.17;;;4.40;;
11313;SDS011;5712;48.858;9.206;2023-06-14T03:07:03;6.77;;;4.90;;
11313;SDS011;5712;48.858;9.206;2023-06-14T03:09:34;5.73;;;5.10;;
11313;SDS011;5712;48.858;9.206;2023-06-14T03:12:01;5.53;;;4.83;;
11313;SDS011;5712;48.858;9.206;2023-06-14T03:14:28;7.53;;;4.43;;
11313;SDS011;5712;48.858;9.206;2023-06-14T03:16:56;4.80;;;4.40;;
11313;SDS011;5712;48.858;9.206;2023-06-14T03:19:24;5.83;;;4.97;;
11313;SDS011;5712;48.858;9.206;2023-06-14T03:21:50;6.33;;;4.90;;
11313;SDS011;5712;48.858;9.206;2023-06-14T03:24:18;5.17;;;4.60;;
11313;SDS011;5712;48.858;9.206;2023-06-14T03:26:45;6.27;;;4.63;;
11313;SDS011;5712;48.858;9.206;2023-06-14T03:29:12;5.57;;;4.97;;
11313;SDS011;5712;48.858;9.206;2023-06-14T03:31:41;5.57;;;4.73;;
11313;SDS011;5712;48.858;9.206;2023-06-14T03:34:23;6.70;;;4.80;;
11313;SDS011;5712;48.858;9.206;2023-06-14T03:36:49;6.63;;;5.20;;
11313;SDS011;5712;48.858;9.206;2023-06-14T03:39:15;4.93;;;4.43;;
11313;SDS011;5712;48.858;9.206;2023-06-14T03:41:43;6.20;;;4.90;;
11313;SDS011;5712;48.858;9.206;2023-06-14T03:44:10;6.47;;;4.93;;
11313;SDS011;5712;48.858;9.206;2023-06-14T03:46:36;5.53;;;4.63;;
11313;SDS011;5712;48.858;9.206;2023-06-14T03:49:03;5.10;;;4.60;;
11313;SDS011;5712;48.858;9.206;2023-06-14T03:51:29;5.33;;;4.30;;
11313;SDS011;5712;48.858;9.206;2023-06-14T03:53:56;5.00;;;4.50;;
11313;SDS011;5712;48.858;9.206;2023-06-14T03:56:22;7.20;;;4.97;;
11313;SDS011;5712;48.858;9.206;2023-06-14T03:58:50;6.10;;;5.37;;
11313;SDS011;5712;48.858;9.206;2023-06-14T04:01:16;5.57;;;4.87;;
11313;SDS011;5712;48.858;9.206;2023-06-14T04:03:43;7.20;;;5.47;;
11313;SDS011;5712;48.858;9.206;2023-06-14T04:06:09;8.80;;;5.80;;
11313;SDS011;5712;48.858;9.206;2023-06-14T04:08:36;7.47;;;5.20;;
11313;SDS011;5712;48.858;9.206;2023-06-14T04:11:04;6.80;;;4.83;;
11313;SDS011;5712;48.858;9.206;2023-06-14T04:13:31;7.90;;;5.20;;
11313;SDS011;5712;48.858;9.206;2023-06-14T04:16:01;6.63;;;5.00;;
11313;SDS011;5712;48.858;9.206;2023-06-14T04:18:28;6.07;;;4.60;;
11313;SDS011;5712;48.858;9.206;2023-06-14T04:20:54;6.43;;;4.67;;
11313;SDS011;5712;48.858;9.206;2023-06-14T04:23:24;5.77;;;4.90;;
11313;SDS011;5712;48.858;9.206;2023-06-14T04:25:53;6.73;;;5.03;;
11313;SDS011;5712;48.858;9.206;2023-06-14T04:28:19;5.80;;;4.83;;
11313;SDS011;5712;48.858;9.206;2023-06-14T04:30:51;5.50;;;5.00;;
11313;SDS011;5712;48.858;9.206;2023-06-14T04:33:20;6.47;;;4.90;;
11313;SDS011;5712;48.858;9.206;2023-06-14T04:35:47;5.73;;;5.17;;
11313;SDS011;5712;48.858;9.206;2023-06-14T04:38:18;7.50;;;5.67;;
11313;SDS011;5712;48.858;9.206;2023-06-14T04:40:49;6.77;;;5.10;;
11313;SDS011;5712;48.858;9.206;2023-06-14T04:43:18;6.70;;;5.50;;
11313;SDS011;5712;48.858;9.206;2023-06-14T04:45:51;8.77;;;6.03;;
11313;SDS011;5712;48.858;9.206;2023-06-14T04:48:21;7.70;;;6.03;;
11313;SDS011;5712;48.858;9.206;2023-06-14T04:50:47;6.50;;;5.77;;
11313;SDS011;5712;48.858;9.206;2023-06-14T04:53:17;9.43;;;5.90;;
11313;SDS011;5712;48.858;9.206;2023-06-14T04:55:47;6.00;;;5.40;;
11313;SDS011;5712;48.858;9.206;2023-06-14T04:58:15;7.47;;;5.73;;
11313;SDS011;5712;48.858;9.206;2023-06-14T05:00:42;8.30;;;6.80;;
11313;SDS011;5712;48.858;9.206;2023-06-14T05:03:08;7.37;;;6.23;;
11313;SDS011;5712;48.858;9.206;2023-06-14T05:05:39;6.70;;;5.50;;
11313;SDS011;5712;48.858;9.206;2023-06-14T05:08:06;5.80;;;5.20;;
11313;SDS011;5712;48.858;9.206;2023-06-14T05:10:32;6.93;;;5.77;;
11313;SDS011;5712;48.858;9.206;2023-06-14T05:13:00;6.53;;;5.80;;
11313;SDS011;5712;48.858;9.206;2023-06-14T05:15:26;5.87;;;5.20;;
11313;SDS011;5712;48.858;9.206;2023-06-14T05:17:54;8.10;;;6.00;;
11313;SDS011;5712;48.858;9.206;2023-06-14T05:20:21;10.63;;;6.23;;
11313;SDS011;5712;48.858;9.206;2023-06-14T05:22:51;7.00;;;5.30;;
11313;SDS011;5712;48.858;9.206;2023-06-14T05:25:18;7.43;;;5.93;;
11313;SDS011;5712;48.858;9.206;2023-06-14T05:27:44;6.53;;;5.67;;
11313;SDS011;5712;48.858;9.206;2023-06-14T05:30:12;7.13;;;5.70;;
11313;SDS011;5712;48.858;9.206;2023-06-14T05:32:39;6.30;;;5.70;;
11313;SDS011;5712;48.858;9.206;2023-06-14T05:35:06;8.27;;;5.77;;
11313;SDS011;5712;48.858;9.206;2023-06-14T05:37:33;6.80;;;5.93;;
11313;SDS011;5712;48.858;9.206;2023-06-14T05:40:00;6.83;;;5.47;;
11313;SDS011;5712;48.858;9.206;2023-06-14T05:42:29;5.83;;;5.23;;
11313;SDS011;5712;48.858;9.206;2023-06-14T05:44:55;5.47;;;4.90;;
11313;SDS011;5712;48.858;9.206;2023-06-14T05:47:22;6.00;;;5.10;;
11313;SDS011;5712;48.858;9.206;2023-06-14T05:49:48;5.97;;;5.07;;
11313;SDS011;5712;48.858;9.206;2023-06-14T05:52:15;5.03;;;4.60;;
11313;SDS011;5712;48.858;9.206;2023-06-14T05:54:45;4.93;;;4.43;;
11313;SDS011;5712;48.858;9.206;2023-06-14T05:57:12;5.00;;;4.50;;
11313;SDS011;5712;48.858;9.206;2023-06-14T05:59:39;6.57;;;5.00;;
11313;SDS011;5712;48.858;9.206;2023-06-14T06:02:06;5.80;;;5.20;;
11313;SDS011;5712;48.858;9.206;2023-06-14T06:04:32;5.47;;;4.93;;
11313;SDS011;5712;48.858;9.206;2023-06-14T06:06:59;5.50;;;4.63;;
11313;SDS011;5712;48.858;9.206;2023-06-14T06:09:25;8.07;;;5.13;;
11313;SDS011;5712;48.858;9.206;2023-06-14T06:11:52;6.93;;;4.80;;
11313;SDS011;5712;48.858;9.206;2023-06-14T06:14:20;6.43;;;4.93;;
11313;SDS011;5712;48.858;9.206;2023-06-14T06:16:46;6.17;;;4.70;;
11313;SDS011;5712;48.858;9.206;2023-06-14T06:19:13;6.23;;;5.00;;
11313;SDS011;5712;48.858;9.206;2023-06-14T06:21:39;5.83;;;4.83;;
11313;SDS011;5712;48.858;9.206;2023-06-14T06:24:06;5.77;;;4.30;;
11313;SDS011;5712;48.858;9.206;2023-06-14T06:26:33;5.53;;;4.80;;
11313;SDS011;5712;48.858;9.206;2023-06-14T06:28:59;5.50;;;4.77;;
11313;SDS011;5712;48.858;9.206;2023-06-14T06:31:27;6.47;;;4.67;;
11313;SDS011;5712;48.858;9.206;2023-06-14T06:33:54;5.30;;;4.80;;
11313;SDS011;5712;48.858;9.206;2023-06-14T06:36:21;6.23;;;4.83;;
11313;SDS011;5712;48.858;9.206;2023-06-14T06:38:48;5.60;;;4.60;;
11313;SDS011;5712;48.858;9.206;2023-06-14T06:41:14;5.57;;;4.53;;
11313;SDS011;5712;48.858;9.206;2023-06-14T06:43:41;6.07;;;5.03;;
11313;SDS011;5712;48.858;9.206;2023-06-14T06:46:07;5.20;;;4.70;;
11313;SDS011;5712;48.858;9.206;2023-06-14T06:48:35;7.40;;;5.27;;
11313;SDS011;5712;48.858;9.206;2023-06-14T06:51:02;5.20;;;4.70;;
11313;SDS011;5712;48.858;9.206;2023-06-14T06:53:28;5.93;;;5.43;;
11313;SDS011;5712;48.858;9.206;2023-06-14T06:55:55;5.23;;;4.73;;
11313;SDS011;5712;48.858;9.206;2023-06-14T06:58:21;6.43;;;5.33;;
11313;SDS011;5712;48.858;9.206;2023-06-14T07:00:48;6.77;;;4.83;;
11313;SDS011;5712;48.858;9.206;2023-06-14T07:03:15;6.67;;;4.57;;
11313;SDS011;5712;48.858;9.206;2023-06-14T07:05:42;5.00;;;4.50;;
11313;SDS011;5712;48.858;9.206;2023-06-14T07:08:11;6.67;;;4.77;;
11313;SDS011;5712;48.858;9.206;2023-06-14T07:10:38;5.67;;;4.63;;
11313;SDS011;5712;48.858;9.206;2023-06-14T07:13:04;5.57;;;4.93;;
11313;SDS011;5712;48.858;9.206;2023-06-14T07:15:31;5.27;;;4.40;;
11313;SDS011;5712;48.858;9.206;2023-06-14T07:17:58;5.80;;;5.17;;
11313;SDS011;5712;48.858;9.206;2023-06-14T07:20:25;5.63;;;5.03;;
11313;SDS011;5712;48.858;9.206;2023-06-14T07:22:53;6.53;;;5.37;;
11313;SDS011;5712;48.858;9.206;2023-06-14T07:25:19;8.17;;;5.27;;
11313;SDS011;5712;48.858;9.206;2023-06-14T07:27:47;7.10;;;5.75;;
11313;SDS011;5712;48.858;9.206;2023-06-14T07:30:13;6.27;;;4.70;;
11313;SDS011;5712;48.858;9.206;2023-06-14T07:32:40;7.40;;;5.53;;
11313;SDS011;5712;48.858;9.206;2023-06-14T07:35:07;6.33;;;5.10;;
11313;SDS011;5712;48.858;9.206;2023-06-14T07:37:34;5.80;;;5.20;;
11313;SDS011;5712;48.858;9.206;2023-06-14T07:40:02;6.67;;;5.80;;
11313;SDS011;5712;48.858;9.206;2023-06-14T07:42:32;7.73;;;6.00;;
11313;SDS011;5712;48.858;9.206;2023-06-14T07:44:59;7.97;;;5.37;;
11313;SDS011;5712;48.858;9.206;2023-06-14T07:47:25;6.80;;;5.40;;
11313;SDS011;5712;48.858;9.206;2023-06-14T07:49:52;7.25;;;5.18;;
11313;SDS011;5712;48.858;9.206;2023-06-14T07:52:18;6.37;;;5.27;;
11313;SDS011;5712;48.858;9.206;2023-06-14T07:54:45;6.57;;;5.37;;
11313;SDS011;5712;48.858;9.206;2023-06-14T07:57:13;7.63;;;5.70;;
11313;SDS011;5712;48.858;9.206;2023-06-14T07:59:39;5.20;;;4.70;;
11313;SDS011;5712;48.858;9.206;2023-06-14T08:02:06;6.97;;;5.07;;
11313;SDS011;5712;48.858;9.206;2023-06-14T08:04:32;6.10;;;5.00;;
11313;SDS011;5712;48.858;9.206;2023-06-14T08:06:59;8.77;;;5.20;;
11313;SDS011;5712;48.858;9.206;2023-06-14T08:09:26;4.87;;;4.43;;
11313;SDS011;5712;48.858;9.206;2023-06-14T08:11:54;5.90;;;4.90;;
11313;SDS011;5712;48.858;9.206;2023-06-14T08:14:22;5.40;;;4.83;;
11313;SDS011;5712;48.858;9.206;2023-06-14T08:16:52;5.30;;;4.47;;
11313;SDS011;5712;48.858;9.206;2023-06-14T08:19:22;6.37;;;5.17;;
11313;SDS011;5712;48.858;9.206;2023-06-14T08:21:51;7.83;;;5.10;;
11313;SDS011;5712;48.858;9.206;2023-06-14T08:24:20;8.20;;;4.90;;
11313;SDS011;5712;48.858;9.206;2023-06-14T08:26:49;6.43;;;5.00;;
11313;SDS011;5712;48.858;9.206;2023-06-14T08:29:16;11.40;;;5.57;;
11313;SDS011;5712;48.858;9.206;2023-06-14T08:31:43;8.20;;;5.33;;
11313;SDS011;5712;48.858;9.206;2023-06-14T08:34:10;7.60;;;5.40;;
11313;SDS011;5712;48.858;9.206;2023-06-14T08:36:37;8.00;;;5.97;;
11313;SDS011;5712;48.858;9.206;2023-06-14T08:39:03;6.30;;;5.50;;
11313;SDS011;5712;48.858;9.206;2023-06-14T08:41:30;6.40;;;5.10;;
11313;SDS011;5712;48.858;9.206;2023-06-14T08:43:57;5.90;;;5.07;;
11313;SDS011;5712;48.858;9.206;2023-06-14T08:46:24;6.63;;;5.37;;
11313;SDS011;5712;48.858;9.206;2023-06-14T08:48:54;8.60;;;5.30;;
11313;SDS011;5712;48.858;9.206;2023-06-14T08:51:22;7.37;;;5.33;;
11313;SDS011;5712;48.858;9.206;2023-06-14T08:53:52;7.83;;;5.43;;
11313;SDS011;5712;48.858;9.206;2023-06-14T08:56:22;6.60;;;5.00;;
11313;SDS011;5712;48.858;9.206;2023-06-14T08:58:51;5.57;;;5.07;;
11313;SDS011;5712;48.858;9.206;2023-06-14T09:01:17;7.63;;;4.73;;
11313;SDS011;5712;48.858;9.206;2023-06-14T09:03:44;8.57;;;5.67;;
11313;SDS011;5712;48.858;9.206;2023-06-14T09:06:14;6.97;;;5.07;;
11313;SDS011;5712;48.858;9.206;2023-06-14T09:08:42;8.47;;;5.40;;
11313;SDS011;5712;48.858;9.206;2023-06-14T09:11:10;8.40;;;5.10;;
11313;SDS011;5712;48.858;9.206;2023-06-14T09:13:38;6.13;;;5.53;;
11313;SDS011;5712;48.858;9.206;2023-06-14T09:16:05;5.60;;;5.10;;
11313;SDS011;5712;48.858;9.206;2023-06-14T09:18:35;6.13;;;5.37;;
11313;SDS011;5712;48.858;9.206;2023-06-14T09:21:02;7.38;;;5.40;;
11313;SDS011;5712;48.858;9.206;2023-06-14T09:23:30;8.63;;;5.20;;
11313;SDS011;5712;48.858;9.206;2023-06-14T09:26:00;6.63;;;5.23;;
11313;SDS011;5712;48.858;9.206;2023-06-14T09:28:27;5.53;;;4.83;;
11313;SDS011;5712;48.858;9.206;2023-06-14T09:30:54;6.73;;;5.17;;
11313;SDS011;5712;48.858;9.206;2023-06-14T09:33:20;7.10;;;5.20;;
11313;SDS011;5712;48.858;9.206;2023-06-14T09:35:50;6.57;;;5.10;;
11313;SDS011;5712;48.858;9.206;2023-06-14T09:38:17;7.80;;;5.27;;
11313;SDS011;5712;48.858;9.206;2023-06-14T09:40:45;7.97;;;5.47;;
11313;SDS011;5712;48.858;9.206;2023-06-14T09:43:11;5.37;;;4.87;;
11313;SDS011;5712;48.858;9.206;2023-06-14T09:45:38;5.47;;;4.83;;
11313;SDS011;5712;48.858;9.206;2023-06-14T09:48:06;6.27;;;4.97;;
11313;SDS011;5712;48.858;9.206;2023-06-14T09:50:33;5.07;;;4.30;;
11313;SDS011;5712;48.858;9.206;2023-06-14T09:53:02;5.63;;;5.13;;
11313;SDS011;5712;48.858;9.206;2023-06-14T09:55:30;5.10;;;4.57;;
11313;SDS011;5712;48.858;9.206;2023-06-14T09:58:01;8.03;;;4.80;;
11313;SDS011;5712;48.858;9.206;2023-06-14T10:00:31;5.50;;;4.23;;
11313;SDS011;5712;48.858;9.206;2023-06-14T10:03:00;5.63;;;4.40;;
11313;SDS011;5712;48.858;9.206;2023-06-14T10:05:29;5.47;;;4.57;;
11313;SDS011;5712;48.858;9.206;2023-06-14T10:07:59;5.20;;;4.70;;
11313;SDS011;5712;48.858;9.206;2023-06-14T10:10:30;4.60;;;4.20;;
11313;SDS011;5712;48.858;9.206;2023-06-14T10:12:57;5.37;;;4.27;;
11313;SDS011;5712;48.858;9.206;2023-06-14T10:15:27;4.60;;;4.10;;
11313;SDS011;5712;48.858;9.206;2023-06-14T10:17:58;4.87;;;4.40;;
11313;SDS011;5712;48.858;9.206;2023-06-14T10:20:35;5.07;;;4.57;;
11313;SDS011;5712;48.858;9.206;2023-06-14T10:23:07;5.40;;;4.00;;
11313;SDS011;5712;48.858;9.206;2023-06-14T10:25:38;4.57;;;4.17;;
11313;SDS011;5712;48.858;9.206;2023-06-14T10:28:14;5.23;;;4.40;;
11313;SDS011;5712;48.858;9.206;2023-06-14T10:33:35;5.20;;;4.37;;
11313;SDS011;5712;48.858;9.206;2023-06-14T10:36:09;4.60;;;4.20;;
11313;SDS011;5712;48.858;9.206;2023-06-14T10:38:37;5.33;;;4.03;;
11313;SDS011;5712;48.858;9.206;2023-06-14T10:41:04;6.60;;;3.93;;
11313;SDS011;5712;48.858;9.206;2023-06-14T10:43:31;5.13;;;4.10;;
11313;SDS011;5712;48.858;9.206;2023-06-14T10:46:18;4.70;;;3.60;;
11313;SDS011;5712;48.858;9.206;2023-06-14T10:48:48;5.17;;;3.83;;
11313;SDS011;5712;48.858;9.206;2023-06-14T10:51:15;4.43;;;4.00;;
11313;SDS011;5712;48.858;9.206;2023-06-14T10:53:45;4.87;;;4.33;;
11313;SDS011;5712;48.858;9.206;2023-06-14T10:56:22;5.03;;;3.67;;
11313;SDS011;5712;48.858;9.206;2023-06-14T10:58:51;4.80;;;4.10;;
11313;SDS011;5712;48.858;9.206;2023-06-14T11:01:19;5.27;;;3.83;;
11313;SDS011;5712;48.858;9.206;2023-06-14T11:04:00;6.40;;;4.13;;
11313;SDS011;5712;48.858;9.206;2023-06-14T11:06:36;4.97;;;3.53;;
11313;SDS011;5712;48.858;9.206;2023-06-14T11:09:19;4.87;;;3.93;;
11313;SDS011;5712;48.858;9.206;2023-06-14T11:12:03;4.47;;;3.60;;
11313;SDS011;5712;48.858;9.206;2023-06-14T11:14:32;3.83;;;3.53;;
11313;SDS011;5712;48.858;9.206;2023-06-14T11:17:00;5.82;;;3.90;;
11313;SDS011;5712;48.858;9.206;2023-06-14T11:19:26;3.92;;;3.60;;
11313;SDS011;5712;48.858;9.206;2023-06-14T11:21:53;6.97;;;3.88;;
11313;SDS011;5712;48.858;9.206;2023-06-14T11:24:20;6.47;;;3.87;;
11313;SDS011;5712;48.858;9.206;2023-06-14T11:26:47;6.47;;;3.70;;
11313;SDS011;5712;48.858;9.206;2023-06-14T11:29:14;5.73;;;3.97;;
11313;SDS011;5712;48.858;9.206;2023-06-14T11:31:42;5.07;;;4.25;;
11313;SDS011;5712;48.858;9.206;2023-06-14T11:34:13;4.97;;;4.10;;
11313;SDS011;5712;48.858;9.206;2023-06-14T11:36:41;4.20;;;3.70;;
11313;SDS011;5712;48.858;9.206;2023-06-14T11:39:08;4.87;;;3.77;;
11313;SDS011;5712;48.858;9.206;2023-06-14T11:41:36;4.60;;;4.07;;
11313;SDS011;5712;48.858;9.206;2023-06-14T11:44:03;6.03;;;3.73;;
11313;SDS011;5712;48.858;9.206;2023-06-14T11:46:30;5.07;;;3.57;;
11313;SDS011;5712;48.858;9.206;2023-06-14T11:48:57;4.43;;;3.70;;
11313;SDS011;5712;48.858;9.206;2023-06-14T11:51:25;5.00;;;3.60;;
11313;SDS011;5712;48.858;9.206;2023-06-14T11:53:52;4.30;;;3.80;;
11313;SDS011;5712;48.858;9.206;2023-06-14T11:56:19;4.45;;;3.70;;
11313;SDS011;5712;48.858;9.206;2023-06-14T11:58:46;4.38;;;3.70;;
11313;SDS011;5712;48.858;9.206;2023-06-14T12:01:14;5.05;;;3.67;;
11313;SDS011;5712;48.858;9.206;2023-06-14T12:03:46;4.10;;;3.70;;
11313;SDS011;5712;48.858;9.206;2023-06-14T12:06:14;5.55;;;3.80;;
11313;SDS011;5712;48.858;9.206;2023-06-14T12:08:44;5.50;;;3.83;;
11313;SDS011;5712;48.858;9.206;2023-06-14T12:11:14;5.97;;;3.87;;
11313;SDS011;5712;48.858;9.206;2023-06-14T12:13:42;4.63;;;3.80;;
11313;SDS011;5712;48.858;9.206;2023-06-14T12:16:09;7.27;;;3.90;;
11313;SDS011;5712;48.858;9.206;2023-06-14T12:18:36;4.53;;;3.80;;
11313;SDS011;5712;48.858;9.206;2023-06-14T12:21:04;4.40;;;3.53;;
11313;SDS011;5712;48.858;9.206;2023-06-14T12:23:45;5.20;;;3.57;;
11313;SDS011;5712;48.858;9.206;2023-06-14T12:26:13;3.87;;;3.57;;
11313;SDS011;5712;48.858;9.206;2023-06-14T12:28:41;4.10;;;3.80;;
11313;SDS011;5712;48.858;9.206;2023-06-14T12:31:08;5.67;;;3.93;;
11313;SDS011;5712;48.858;9.206;2023-06-14T12:33:34;6.30;;;4.17;;
11313;SDS011;5712;48.858;9.206;2023-06-14T12:36:02;4.20;;;3.60;;
11313;SDS011;5712;48.858;9.206;2023-06-14T12:38:30;4.10;;;3.70;;
11313;SDS011;5712;48.858;9.206;2023-06-14T12:40:58;3.70;;;3.40;;
11313;SDS011;5712;48.858;9.206;2023-06-14T12:43:24;4.60;;;4.20;;
11313;SDS011;5712;48.858;9.206;2023-06-14T12:45:51;4.27;;;3.87;;
11313;SDS011;5712;48.858;9.206;2023-06-14T12:48:18;5.70;;;4.27;;
11313;SDS011;5712;48.858;9.206;2023-06-14T12:50:45;5.27;;;3.70;;
11313;SDS011;5712;48.858;9.206;2023-06-14T12:53:12;4.10;;;3.58;;
11313;SDS011;5712;48.858;9.206;2023-06-14T12:55:39;4.37;;;3.80;;
11313;SDS011;5712;48.858;9.206;2023-06-14T12:58:07;7.77;;;4.07;;
11313;SDS011;5712;48.858;9.206;2023-06-14T13:00:33;4.37;;;3.63;;
11313;SDS011;5712;48.858;9.206;2023-06-14T13:03:00;4.43;;;4.03;;
11313;SDS011;5712;48.858;9.206;2023-06-14T13:05:26;4.63;;;4.10;;
11313;SDS011;5712;48.858;9.206;2023-06-14T13:07:53;5.40;;;3.63;;
11313;SDS011;5712;48.858;9.206;2023-06-14T13:10:20;4.10;;;3.70;;
11313;SDS011;5712;48.858;9.206;2023-06-14T13:12:46;4.70;;;4.20;;
11313;SDS011;5712;48.858;9.206;2023-06-14T13:15:14;4.20;;;3.80;;
11313;SDS011;5712;48.858;9.206;2023-06-14T13:17:40;5.07;;;3.80;;
11313;SDS011;5712;48.858;9.206;2023-06-14T13:20:09;4.00;;;3.60;;
11313;SDS011;5712;48.858;9.206;2023-06-14T13:22:35;4.03;;;3.63;;
11313;SDS011;5712;48.858;9.206;2023-06-14T13:25:02;5.27;;;3.70;;
11313;SDS011;5712;48.858;9.206;2023-06-14T13:27:29;4.43;;;3.70;;
11313;SDS011;5712;48.858;9.206;2023-06-14T13:29:56;3.97;;;3.63;;
11313;SDS011;5712;48.858;9.206;2023-06-14T13:32:24;4.85;;;4.00;;
11313;SDS011;5712;48.858;9.206;2023-06-14T13:34:50;4.20;;;3.58;;
11313;SDS011;5712;48.858;9.206;2023-06-14T13:37:17;4.63;;;3.77;;
11313;SDS011;5712;48.858;9.206;2023-06-14T13:39:43;6.77;;;4.10;;
11313;SDS011;5712;48.858;9.206;2023-06-14T13:42:10;4.95;;;3.80;;
11313;SDS011;5712;48.858;9.206;2023-06-14T13:44:36;4.60;;;4.20;;
11313;SDS011;5712;48.858;9.206;2023-06-14T13:47:03;4.05;;;3.65;;
11313;SDS011;5712;48.858;9.206;2023-06-14T13:49:32;4.00;;;3.70;;
11313;SDS011;5712;48.858;9.206;2023-06-14T13:52:00;5.47;;;3.92;;
11313;SDS011;5712;48.858;9.206;2023-06-14T13:54:26;4.93;;;4.20;;
11313;SDS011;5712;48.858;9.206;2023-06-14T13:56:53;4.53;;;4.13;;
11313;SDS011;5712;48.858;9.206;2023-06-14T13:59:20;4.40;;;3.90;;
11313;SDS011;5712;48.858;9.206;2023-06-14T14:01:47;4.03;;;3.60;;
11313;SDS011;5712;48.858;9.206;2023-06-14T14:04:13;8.90;;;4.10;;
11313;SDS011;5712;48.858;9.206;2023-06-14T14:06:41;5.10;;;4.30;;
11313;SDS011;5712;48.858;9.206;2023-06-14T14:09:08;4.63;;;4.22;;
11313;SDS011;5712;48.858;9.206;2023-06-14T14:11:35;4.30;;;3.97;;
11313;SDS011;5712;48.858;9.206;2023-06-14T14:14:01;5.70;;;3.80;;
11313;SDS011;5712;48.858;9.206;2023-06-14T14:16:27;5.85;;;3.97;;
11313;SDS011;5712;48.858;9.206;2023-06-14T14:18:55;5.10;;;4.03;;
11313;SDS011;5712;48.858;9.206;2023-06-14T14:21:21;5.50;;;4.50;;
11313;SDS011;5712;48.858;9.206;2023-06-14T14:23:49;4.93;;;4.43;;
11313;SDS011;5712;48.858;9.206;2023-06-14T14:26:16;6.13;;;4.32;;
11313;SDS011;5712;48.858;9.206;2023-06-14T14:28:42;4.32;;;3.95;;
11313;SDS011;5712;48.858;9.206;2023-06-14T14:31:09;6.40;;;3.83;;
11313;SDS011;5712;48.858;9.206;2023-06-14T14:33:35;6.40;;;4.30;;
11313;SDS011;5712;48.858;9.206;2023-06-14T14:36:02;4.10;;;3.80;;
11313;SDS011;5712;48.858;9.206;2023-06-14T14:38:29;6.17;;;4.10;;
11313;SDS011;5712;48.858;9.206;2023-06-14T14:40:57;4.20;;;3.80;;
11313;SDS011;5712;48.858;9.206;2023-06-14T14:43:24;4.93;;;4.00;;
11313;SDS011;5712;48.858;9.206;2023-06-14T14:45:51;4.67;;;3.73;;
11313;SDS011;5712;48.858;9.206;2023-06-14T14:48:18;4.70;;;3.53;;
11313;SDS011;5712;48.858;9.206;2023-06-14T14:50:44;4.30;;;3.90;;
11313;SDS011;5712;48.858;9.206;2023-06-14T14:53:11;6.07;;;4.20;;
11313;SDS011;5712;48.858;9.206;2023-06-14T14:55:41;4.93;;;3.92;;
11313;SDS011;5712;48.858;9.206;2023-06-14T14:58:09;4.63;;;4.13;;
11313;SDS011;5712;48.858;9.206;2023-06-14T15:00:36;4.13;;;3.70;;
11313;SDS011;5712;48.858;9.206;2023-06-14T15:03:02;3.67;;;3.38;;
11313;SDS011;5712;48.858;9.206;2023-06-14T15:05:29;3.70;;;3.40;;
11313;SDS011;5712;48.858;9.206;2023-06-14T15:07:55;4.50;;;3.87;;